sensor_id;sensor_type;location;lat;lon;timestamp;pressure;altitude;pressure_sealevel;temperature;humidity
38880;BME280;25887;30.194;-97.880;2024-03-23T01:08:04;98340.44;;;23.79;41.60
38880;BME280;25887;30.194;-97.880;2024-03-23T01:45:07;98378.19;;;23.26;42.76
38880;BME280;25887;30.194;-97.880;2024-03-23T01:56:36;98402.56;;;23.11;42.83
38880;BME280;25887;30.194;-97.880;2024-03-23T01:59:03;98400.94;;;23.08;43.04
38880;BME280;25887;30.194;-97.880;2024-03-23T02:01:42;98402.03;;;23.04;42.83
38880;BME280;25887;30.194;-97.880;2024-03-23T02:07:02;98415.53;;;22.96;43.10
38880;BME280;25887;30.194;-97.880;2024-03-23T02:09:29;98411.44;;;22.91;43.06
38880;BME280;25887;30.194;-97.880;2024-03-23T02:11:56;98422.91;;;22.88;42.88
38880;BME280;25887;30.194;-97.880;2024-03-23T02:14:22;98420.47;;;22.84;42.98
38880;BME280;25887;30.194;-97.880;2024-03-23T02:16:55;98428.53;;;22.79;43.18
38880;BME280;25887;30.194;-97.880;2024-03-23T02:25:45;98447.41;;;22.68;43.23
38880;BME280;25887;30.194;-97.880;2024-03-23T03:06:30;98528.56;;;22.12;44.06
38880;BME280;25887;30.194;-97.880;2024-03-23T03:08:56;98540.81;;;22.11;44.11
38880;BME280;25887;30.194;-97.880;2024-03-23T03:11:24;98538.19;;;22.11;44.42
38880;BME280;25887;30.194;-97.880;2024-03-23T03:13:50;98540.84;;;22.10;44.48
38880;BME280;25887;30.194;-97.880;2024-03-23T03:16:16;98554.00;;;22.08;44.63
38880;BME280;25887;30.194;-97.880;2024-03-23T03:18:42;98564.59;;;22.05;44.30
38880;BME280;25887;30.194;-97.880;2024-03-23T03:21:09;98569.94;;;22.02;44.50
38880;BME280;25887;30.194;-97.880;2024-03-23T03:23:37;98571.78;;;22.00;44.55
38880;BME280;25887;30.194;-97.880;2024-03-23T03:26:03;98572.78;;;21.97;44.72
38880;BME280;25887;30.194;-97.880;2024-03-23T03:28:29;98575.53;;;21.94;44.59
38880;BME280;25887;30.194;-97.880;2024-03-23T03:30:56;98572.19;;;21.91;44.59
38880;BME280;25887;30.194;-97.880;2024-03-23T03:33:23;98581.97;;;21.86;44.56
38880;BME280;25887;30.194;-97.880;2024-03-23T03:38:52;98583.44;;;21.73;44.95
38880;BME280;25887;30.194;-97.880;2024-03-23T03:41:18;98584.53;;;21.67;45.00
38880;BME280;25887;30.194;-97.880;2024-03-23T05:56:32;98702.66;;;18.98;47.88
38880;BME280;25887;30.194;-97.880;2024-03-23T06:17:20;98692.03;;;18.74;48.11
38880;BME280;25887;30.194;-97.880;2024-03-23T06:51:39;98680.81;;;18.40;48.68
38880;BME280;25887;30.194;-97.880;2024-03-23T06:54:05;98680.00;;;18.37;48.78
38880;BME280;25887;30.194;-97.880;2024-03-23T06:56:32;98678.38;;;18.33;48.63
38880;BME280;25887;30.194;-97.880;2024-03-23T06:58:59;98682.81;;;18.30;48.71
38880;BME280;25887;30.194;-97.880;2024-03-23T07:01:28;98675.13;;;18.25;48.71
38880;BME280;25887;30.194;-97.880;2024-03-23T07:04:14;98677.81;;;18.22;48.82
38880;BME280;25887;30.194;-97.880;2024-03-23T07:06:48;98667.47;;;18.19;48.70
38880;BME280;25887;30.194;-97.880;2024-03-23T08:02:28;98606.16;;;17.41;49.51
38880;BME280;25887;30.194;-97.880;2024-03-23T08:07:42;98613.28;;;17.33;49.65
38880;BME280;25887;30.194;-97.880;2024-03-23T08:12:53;98603.03;;;17.26;49.71
38880;BME280;25887;30.194;-97.880;2024-03-23T08:15:19;98601.34;;;17.25;49.54
38880;BME280;25887;30.194;-97.880;2024-03-23T08:18:02;98608.31;;;17.23;49.63
38880;BME280;25887;30.194;-97.880;2024-03-23T08:20:28;98598.81;;;17.22;49.73
38880;BME280;25887;30.194;-97.880;2024-03-23T08:22:54;98594.53;;;17.21;49.69
38880;BME280;25887;30.194;-97.880;2024-03-23T08:25:20;98588.47;;;17.21;49.76
38880;BME280;25887;30.194;-97.880;2024-03-23T08:28:15;98590.13;;;17.23;49.82
38880;BME280;25887;30.194;-97.880;2024-03-23T08:30:51;98582.31;;;17.25;49.89
38880;BME280;25887;30.194;-97.880;2024-03-23T08:33:27;98576.25;;;17.24;49.93
38880;BME280;25887;30.194;-97.880;2024-03-23T09:26:21;98568.97;;;17.03;50.70
38880;BME280;25887;30.194;-97.880;2024-03-23T09:28:49;98580.19;;;17.04;50.73
38880;BME280;25887;30.194;-97.880;2024-03-23T09:31:15;98577.59;;;17.05;50.86
38880;BME280;25887;30.194;-97.880;2024-03-23T09:33:41;98587.97;;;17.05;50.68
38880;BME280;25887;30.194;-97.880;2024-03-23T09:36:07;98584.53;;;17.05;50.88
38880;BME280;25887;30.194;-97.880;2024-03-23T09:38:40;98586.22;;;17.06;50.81
38880;BME280;25887;30.194;-97.880;2024-03-23T09:41:51;98585.34;;;17.07;50.73
38880;BME280;25887;30.194;-97.880;2024-03-23T09:44:28;98585.34;;;17.07;50.84
38880;BME280;25887;30.194;-97.880;2024-03-23T09:46:54;98579.28;;;17.06;50.67
38880;BME280;25887;30.194;-97.880;2024-03-23T09:49:28;98581.84;;;17.08;50.74
38880;BME280;25887;30.194;-97.880;2024-03-23T09:52:12;98571.56;;;17.05;50.77
38880;BME280;25887;30.194;-97.880;2024-03-23T09:54:38;98581.94;;;17.03;50.89
38880;BME280;25887;30.194;-97.880;2024-03-23T09:57:04;98583.72;;;17.01;50.88
38880;BME280;25887;30.194;-97.880;2024-03-23T10:11:45;98585.91;;;16.81;50.83
38880;BME280;25887;30.194;-97.880;2024-03-23T10:36:14;98605.22;;;16.66;51.29
38880;BME280;25887;30.194;-97.880;2024-03-23T10:38:42;98615.66;;;16.63;51.27
38880;BME280;25887;30.194;-97.880;2024-03-23T10:41:10;98615.72;;;16.60;51.10
38880;BME280;25887;30.194;-97.880;2024-03-23T10:44:13;98619.25;;;16.56;51.12
38880;BME280;25887;30.194;-97.880;2024-03-23T10:46:50;98623.66;;;16.52;51.13
38880;BME280;25887;30.194;-97.880;2024-03-23T10:49:16;98621.13;;;16.49;51.21
38880;BME280;25887;30.194;-97.880;2024-03-23T10:51:42;98622.00;;;16.48;51.24
38880;BME280;25887;30.194;-97.880;2024-03-23T10:54:08;98622.06;;;16.45;51.10
38880;BME280;25887;30.194;-97.880;2024-03-23T10:56:42;98621.25;;;16.43;51.27
38880;BME280;25887;30.194;-97.880;2024-03-23T10:59:25;98622.19;;;16.39;51.21
38880;BME280;25887;30.194;-97.880;2024-03-23T11:02:21;98629.19;;;16.34;51.22
38880;BME280;25887;30.194;-97.880;2024-03-23T11:04:56;98630.09;;;16.33;51.37
38880;BME280;25887;30.194;-97.880;2024-03-23T11:12:47;98647.44;;;16.29;51.29
38880;BME280;25887;30.194;-97.880;2024-03-23T11:15:30;98649.19;;;16.29;51.51
38880;BME280;25887;30.194;-97.880;2024-03-23T11:18:02;98652.66;;;16.28;51.54
38880;BME280;25887;30.194;-97.880;2024-03-23T11:20:31;98665.63;;;16.28;51.43
38880;BME280;25887;30.194;-97.880;2024-03-23T11:22:57;98669.97;;;16.27;51.52
38880;BME280;25887;30.194;-97.880;2024-03-23T11:25:23;98676.00;;;16.28;51.52
38880;BME280;25887;30.194;-97.880;2024-03-23T11:30:35;98670.81;;;16.28;51.47
38880;BME280;25887;30.194;-97.880;2024-03-23T12:48:54;98786.81;;;16.15;52.73
38880;BME280;25887;30.194;-97.880;2024-03-23T12:54:23;98796.25;;;16.21;52.50
38880;BME280;25887;30.194;-97.880;2024-03-23T12:56:51;98805.72;;;16.22;52.59
38880;BME280;25887;30.194;-97.880;2024-03-23T12:59:25;98816.03;;;16.25;52.48
38880;BME280;25887;30.194;-97.880;2024-03-23T13:01:53;98813.16;;;16.41;52.74
38880;BME280;25887;30.194;-97.880;2024-03-23T13:04:20;98812.09;;;16.55;52.52
38880;BME280;25887;30.194;-97.880;2024-03-23T13:06:46;98812.84;;;16.61;52.46
38880;BME280;25887;30.194;-97.880;2024-03-23T13:09:12;98817.97;;;16.64;52.52
38880;BME280;25887;30.194;-97.880;2024-03-23T13:11:38;98817.94;;;16.67;52.67
38880;BME280;25887;30.194;-97.880;2024-03-23T13:14:03;98823.97;;;16.69;52.75
38880;BME280;25887;30.194;-97.880;2024-03-23T13:16:31;98820.53;;;16.67;52.83
38880;BME280;25887;30.194;-97.880;2024-03-23T13:19:03;98812.78;;;16.66;52.74
38880;BME280;25887;30.194;-97.880;2024-03-23T13:22:07;98813.69;;;16.62;52.92
38880;BME280;25887;30.194;-97.880;2024-03-23T13:24:38;98822.31;;;16.62;53.10
38880;BME280;25887;30.194;-97.880;2024-03-23T13:27:39;98824.06;;;16.62;53.21
38880;BME280;25887;30.194;-97.880;2024-03-23T13:30:11;98823.19;;;16.63;53.27
38880;BME280;25887;30.194;-97.880;2024-03-23T13:32:55;98830.91;;;16.67;53.32
38880;BME280;25887;30.194;-97.880;2024-03-23T13:35:21;98830.91;;;16.69;53.31
38880;BME280;25887;30.194;-97.880;2024-03-23T13:37:47;98836.06;;;16.70;53.38
38880;BME280;25887;30.194;-97.880;2024-03-23T13:40:13;98849.00;;;16.74;53.55
38880;BME280;25887;30.194;-97.880;2024-03-23T13:42:39;98855.84;;;16.76;53.75
38880;BME280;25887;30.194;-97.880;2024-03-23T13:45:05;98854.94;;;16.79;53.57
38880;BME280;25887;30.194;-97.880;2024-03-23T13:56:31;98872.91;;;16.91;53.97
38880;BME280;25887;30.194;-97.880;2024-03-23T13:59:04;98885.81;;;16.94;54.12
38880;BME280;25887;30.194;-97.880;2024-03-23T14:01:36;98893.50;;;17.00;54.17
38880;BME280;25887;30.194;-97.880;2024-03-23T14:07:06;98913.22;;;17.10;54.22
38880;BME280;25887;30.194;-97.880;2024-03-23T14:09:32;98912.22;;;17.17;54.44
38880;BME280;25887;30.194;-97.880;2024-03-23T14:14:53;98935.38;;;17.30;54.56
38880;BME280;25887;30.194;-97.880;2024-03-23T14:17:35;98949.13;;;17.36;54.58
38880;BME280;25887;30.194;-97.880;2024-03-23T14:20:04;98942.94;;;17.43;54.63
38880;BME280;25887;30.194;-97.880;2024-03-23T14:22:31;98947.97;;;17.51;54.37
38880;BME280;25887;30.194;-97.880;2024-03-23T14:24:57;98962.53;;;17.58;54.75
38880;BME280;25887;30.194;-97.880;2024-03-23T15:24:58;99057.41;;;18.70;53.74
38880;BME280;25887;30.194;-97.880;2024-03-23T15:27:37;99058.31;;;18.69;53.69
38880;BME280;25887;30.194;-97.880;2024-03-23T15:30:11;99047.81;;;18.72;53.77
38880;BME280;25887;30.194;-97.880;2024-03-23T15:32:37;99050.34;;;18.75;53.82
38880;BME280;25887;30.194;-97.880;2024-03-23T15:35:07;99039.03;;;18.78;53.66
38880;BME280;25887;30.194;-97.880;2024-03-23T15:37:36;99044.09;;;18.82;53.63
38880;BME280;25887;30.194;-97.880;2024-03-23T15:40:14;99040.66;;;18.83;53.82
38880;BME280;25887;30.194;-97.880;2024-03-23T16:52:23;99031.72;;;20.27;53.19
38880;BME280;25887;30.194;-97.880;2024-03-23T16:54:50;99033.31;;;20.33;52.99
38880;BME280;25887;30.194;-97.880;2024-03-23T16:57:16;99033.16;;;20.37;53.05
38880;BME280;25887;30.194;-97.880;2024-03-23T16:59:42;99033.00;;;20.43;53.04
38880;BME280;25887;30.194;-97.880;2024-03-23T17:02:08;99035.47;;;20.49;52.87
38880;BME280;25887;30.194;-97.880;2024-03-23T17:04:37;99041.31;;;20.57;53.05
38880;BME280;25887;30.194;-97.880;2024-03-23T17:07:03;99033.28;;;20.64;52.94
38880;BME280;25887;30.194;-97.880;2024-03-23T17:09:29;99034.84;;;20.69;52.71
38880;BME280;25887;30.194;-97.880;2024-03-23T17:11:56;99030.34;;;20.74;52.75
38880;BME280;25887;30.194;-97.880;2024-03-23T17:14:22;99022.38;;;20.79;52.63
38880;BME280;25887;30.194;-97.880;2024-03-23T17:16:51;99016.16;;;20.83;52.60
38880;BME280;25887;30.194;-97.880;2024-03-23T17:19:18;99002.19;;;20.84;52.58
38880;BME280;25887;30.194;-97.880;2024-03-23T17:21:44;98997.88;;;20.83;52.58
38880;BME280;25887;30.194;-97.880;2024-03-23T17:24:12;99003.94;;;20.83;52.67
38880;BME280;25887;30.194;-97.880;2024-03-23T17:26:38;99003.88;;;20.86;52.70
38880;BME280;25887;30.194;-97.880;2024-03-23T17:29:04;99005.50;;;20.89;52.57
38880;BME280;25887;30.194;-97.880;2024-03-23T17:31:30;99001.88;;;20.93;52.46
38880;BME280;25887;30.194;-97.880;2024-03-23T17:33:56;99000.84;;;20.99;52.67
38880;BME280;25887;30.194;-97.880;2024-03-23T17:36:22;98988.44;;;21.05;52.50
38880;BME280;25887;30.194;-97.880;2024-03-23T17:38:55;98983.00;;;21.11;52.71
38880;BME280;25887;30.194;-97.880;2024-03-23T17:41:22;98968.91;;;21.17;52.56
38880;BME280;25887;30.194;-97.880;2024-03-23T17:43:48;98959.97;;;21.23;52.32
38880;BME280;25887;30.194;-97.880;2024-03-23T17:46:22;98955.44;;;21.29;52.49
38880;BME280;25887;30.194;-97.880;2024-03-23T17:48:48;98969.00;;;21.40;52.41
38880;BME280;25887;30.194;-97.880;2024-03-23T17:51:23;98967.84;;;21.49;52.46
38880;BME280;25887;30.194;-97.880;2024-03-23T17:53:49;98958.00;;;21.56;51.86
38880;BME280;25887;30.194;-97.880;2024-03-23T17:56:14;98944.69;;;21.62;52.13
38880;BME280;25887;30.194;-97.880;2024-03-23T18:07:49;98927.72;;;21.97;52.06
38880;BME280;25887;30.194;-97.880;2024-03-23T18:10:25;98910.22;;;21.99;51.69
38880;BME280;25887;30.194;-97.880;2024-03-23T18:12:51;98911.75;;;22.05;51.92
38880;BME280;25887;30.194;-97.880;2024-03-23T18:15:17;98904.59;;;22.10;51.73
38880;BME280;25887;30.194;-97.880;2024-03-23T18:17:43;98898.34;;;22.14;51.54
38880;BME280;25887;30.194;-97.880;2024-03-23T18:20:09;98887.81;;;22.15;51.34
38880;BME280;25887;30.194;-97.880;2024-03-23T18:22:35;98875.47;;;22.19;51.70
38880;BME280;25887;30.194;-97.880;2024-03-23T18:25:01;98869.88;;;22.28;51.68
38880;BME280;25887;30.194;-97.880;2024-03-23T18:27:45;98858.03;;;22.40;51.37
38880;BME280;25887;30.194;-97.880;2024-03-23T18:30:18;98855.84;;;22.51;51.28
38880;BME280;25887;30.194;-97.880;2024-03-23T18:32:45;98862.53;;;22.58;51.34
38880;BME280;25887;30.194;-97.880;2024-03-23T18:38:14;98849.59;;;22.75;51.10
38880;BME280;25887;30.194;-97.880;2024-03-23T18:40:43;98853.66;;;22.83;51.21
38880;BME280;25887;30.194;-97.880;2024-03-23T18:43:09;98851.59;;;22.91;51.18
38880;BME280;25887;30.194;-97.880;2024-03-23T18:45:35;98836.53;;;22.96;51.15
38880;BME280;25887;30.194;-97.880;2024-03-23T18:48:03;98833.59;;;23.03;51.08
38880;BME280;25887;30.194;-97.880;2024-03-23T18:50:29;98837.84;;;23.06;51.10
38880;BME280;25887;30.194;-97.880;2024-03-23T18:52:55;98833.38;;;23.08;50.95
38880;BME280;25887;30.194;-97.880;2024-03-23T18:55:21;98830.59;;;23.11;50.66
38880;BME280;25887;30.194;-97.880;2024-03-23T18:57:47;98831.41;;;23.13;50.71
38880;BME280;25887;30.194;-97.880;2024-03-23T19:01:01;98820.72;;;23.18;50.63
38880;BME280;25887;30.194;-97.880;2024-03-23T19:03:28;98812.81;;;23.19;50.85
38880;BME280;25887;30.194;-97.880;2024-03-23T19:06:14;98807.56;;;23.19;50.80
38880;BME280;25887;30.194;-97.880;2024-03-23T19:09:00;98795.06;;;23.24;50.48
38880;BME280;25887;30.194;-97.880;2024-03-23T19:11:26;98795.06;;;23.24;50.18
38880;BME280;25887;30.194;-97.880;2024-03-23T19:13:52;98792.34;;;23.27;50.31
38880;BME280;25887;30.194;-97.880;2024-03-23T19:16:18;98785.25;;;23.29;50.21
38880;BME280;25887;30.194;-97.880;2024-03-23T19:18:44;98786.09;;;23.30;50.36
38880;BME280;25887;30.194;-97.880;2024-03-23T19:24:13;98776.25;;;23.35;50.01
38880;BME280;25887;30.194;-97.880;2024-03-23T19:26:54;98769.16;;;23.37;49.90
38880;BME280;25887;30.194;-97.880;2024-03-23T19:29:20;98765.63;;;23.38;49.89
38880;BME280;25887;30.194;-97.880;2024-03-23T19:31:46;98765.53;;;23.40;49.55
38880;BME280;25887;30.194;-97.880;2024-03-23T19:34:12;98764.34;;;23.47;49.86
38880;BME280;25887;30.194;-97.880;2024-03-23T19:36:38;98745.78;;;23.51;49.65
38880;BME280;25887;30.194;-97.880;2024-03-23T19:39:04;98743.78;;;23.56;49.62
38880;BME280;25887;30.194;-97.880;2024-03-23T19:41:34;98724.31;;;23.62;49.69
38880;BME280;25887;30.194;-97.880;2024-03-23T20:42:19;98586.31;;;24.93;46.54
38880;BME280;25887;30.194;-97.880;2024-03-23T20:48:39;98569.84;;;24.90;46.67
38880;BME280;25887;30.194;-97.880;2024-03-23T21:03:52;98547.50;;;25.14;46.48
38880;BME280;25887;30.194;-97.880;2024-03-23T21:13:11;98535.94;;;25.01;45.77
38880;BME280;25887;30.194;-97.880;2024-03-23T23:45:34;98411.56;;;24.39;45.04
38880;BME280;25887;30.194;-97.880;2024-03-23T23:48:01;98410.72;;;24.38;44.97
38880;BME280;25887;30.194;-97.880;2024-03-23T23:50:52;98401.13;;;24.37;45.01
38880;BME280;25887;30.194;-97.880;2024-03-23T23:53:18;98399.25;;;24.39;45.23
38880;BME280;25887;30.194;-97.880;2024-03-23T23:55:44;98397.56;;;24.38;45.18
38880;BME280;25887;30.194;-97.880;2024-03-23T23:58:10;98388.84;;;24.38;45.04
